sensor_id;sensor_type;location;lat;lon;timestamp;temperature;humidity
22114;DHT22;11223;49.968;9.062;2023-08-08T00:00:02;12.50;99.90
22114;DHT22;11223;49.968;9.062;2023-08-08T00:02:28;12.50;99.90
22114;DHT22;11223;49.968;9.062;2023-08-08T00:04:54;12.50;99.90
22114;DHT22;11223;49.968;9.062;2023-08-08T00:07:19;12.50;99.90
22114;DHT22;11223;49.968;9.062;2023-08-08T00:09:45;12.50;99.90
22114;DHT22;11223;49.968;9.062;2023-08-08T00:12:11;12.40;99.90
22114;DHT22;11223;49.968;9.062;2023-08-08T00:14:36;12.40;99.90
22114;DHT22;11223;49.968;9.062;2023-08-08T00:17:02;12.40;99.90
22114;DHT22;11223;49.968;9.062;2023-08-08T00:19:27;12.50;99.90
22114;DHT22;11223;49.968;9.062;2023-08-08T00:21:53;12.50;99.90
22114;DHT22;11223;49.968;9.062;2023-08-08T00:24:18;12.50;99.90
22114;DHT22;11223;49.968;9.062;2023-08-08T00:26:44;12.50;99.90
22114;DHT22;11223;49.968;9.062;2023-08-08T00:29:09;12.50;99.90
22114;DHT22;11223;49.968;9.062;2023-08-08T00:31:35;12.50;99.90
22114;DHT22;11223;49.968;9.062;2023-08-08T00:34:00;12.50;99.90
22114;DHT22;11223;49.968;9.062;2023-08-08T00:36:26;12.50;99.90
22114;DHT22;11223;49.968;9.062;2023-08-08T00:38:51;12.50;99.90
22114;DHT22;11223;49.968;9.062;2023-08-08T00:41:17;12.50;99.90
22114;DHT22;11223;49.968;9.062;2023-08-08T00:43:42;12.50;99.90
22114;DHT22;11223;49.968;9.062;2023-08-08T00:46:08;12.50;99.90
22114;DHT22;11223;49.968;9.062;2023-08-08T00:48:34;12.50;99.90
22114;DHT22;11223;49.968;9.062;2023-08-08T00:51:00;12.50;99.90
22114;DHT22;11223;49.968;9.062;2023-08-08T00:53:25;12.50;99.90
22114;DHT22;11223;49.968;9.062;2023-08-08T00:55:53;12.40;99.90
22114;DHT22;11223;49.968;9.062;2023-08-08T00:58:19;12.40;99.90
22114;DHT22;11223;49.968;9.062;2023-08-08T01:00:44;12.40;99.90
22114;DHT22;11223;49.968;9.062;2023-08-08T01:03:10;12.40;99.90
22114;DHT22;11223;49.968;9.062;2023-08-08T01:05:38;12.40;99.90
22114;DHT22;11223;49.968;9.062;2023-08-08T01:08:06;12.40;99.90
22114;DHT22;11223;49.968;9.062;2023-08-08T01:10:39;12.40;99.90
22114;DHT22;11223;49.968;9.062;2023-08-08T01:13:12;12.30;99.90
22114;DHT22;11223;49.968;9.062;2023-08-08T01:15:39;12.30;99.90
22114;DHT22;11223;49.968;9.062;2023-08-08T01:18:05;12.30;99.90
22114;DHT22;11223;49.968;9.062;2023-08-08T01:20:31;12.30;99.90
22114;DHT22;11223;49.968;9.062;2023-08-08T01:23:01;12.30;99.90
22114;DHT22;11223;49.968;9.062;2023-08-08T01:25:28;12.30;99.90
22114;DHT22;11223;49.968;9.062;2023-08-08T01:27:54;12.30;99.90
22114;DHT22;11223;49.968;9.062;2023-08-08T01:30:20;12.30;99.90
22114;DHT22;11223;49.968;9.062;2023-08-08T01:32:46;12.30;99.90
22114;DHT22;11223;49.968;9.062;2023-08-08T01:35:11;12.20;99.90
22114;DHT22;11223;49.968;9.062;2023-08-08T01:37:41;12.20;99.90
22114;DHT22;11223;49.968;9.062;2023-08-08T01:40:09;12.20;99.90
22114;DHT22;11223;49.968;9.062;2023-08-08T01:42:35;12.10;99.90
22114;DHT22;11223;49.968;9.062;2023-08-08T01:45:01;12.10;99.90
22114;DHT22;11223;49.968;9.062;2023-08-08T01:47:27;12.00;99.90
22114;DHT22;11223;49.968;9.062;2023-08-08T01:49:53;12.00;99.90
22114;DHT22;11223;49.968;9.062;2023-08-08T01:52:18;12.00;99.90
22114;DHT22;11223;49.968;9.062;2023-08-08T01:54:44;12.00;99.90
22114;DHT22;11223;49.968;9.062;2023-08-08T01:57:09;12.00;99.90
22114;DHT22;11223;49.968;9.062;2023-08-08T01:59:35;12.00;99.90
22114;DHT22;11223;49.968;9.062;2023-08-08T02:02:00;12.00;99.90
22114;DHT22;11223;49.968;9.062;2023-08-08T02:04:26;12.00;99.90
22114;DHT22;11223;49.968;9.062;2023-08-08T02:06:51;12.00;99.90
22114;DHT22;11223;49.968;9.062;2023-08-08T02:09:17;11.90;99.90
22114;DHT22;11223;49.968;9.062;2023-08-08T02:11:42;11.90;99.90
22114;DHT22;11223;49.968;9.062;2023-08-08T02:14:08;11.90;99.90
22114;DHT22;11223;49.968;9.062;2023-08-08T02:16:33;11.90;99.90
22114;DHT22;11223;49.968;9.062;2023-08-08T02:19:00;12.00;99.90
22114;DHT22;11223;49.968;9.062;2023-08-08T02:21:25;11.90;99.90
22114;DHT22;11223;49.968;9.062;2023-08-08T02:23:51;12.00;99.90
22114;DHT22;11223;49.968;9.062;2023-08-08T02:26:16;11.90;99.90
22114;DHT22;11223;49.968;9.062;2023-08-08T02:28:41;11.90;99.90
22114;DHT22;11223;49.968;9.062;2023-08-08T02:31:08;11.90;99.90
22114;DHT22;11223;49.968;9.062;2023-08-08T02:33:34;11.90;99.90
22114;DHT22;11223;49.968;9.062;2023-08-08T02:35:59;11.80;99.90
22114;DHT22;11223;49.968;9.062;2023-08-08T02:38:25;11.80;99.90
22114;DHT22;11223;49.968;9.062;2023-08-08T02:40:50;11.80;99.90
22114;DHT22;11223;49.968;9.062;2023-08-08T02:43:16;11.80;99.90
22114;DHT22;11223;49.968;9.062;2023-08-08T02:45:41;11.70;99.90
22114;DHT22;11223;49.968;9.062;2023-08-08T02:48:07;11.70;99.90
22114;DHT22;11223;49.968;9.062;2023-08-08T02:50:32;11.70;99.90
22114;DHT22;11223;49.968;9.062;2023-08-08T02:52:58;11.70;99.90
22114;DHT22;11223;49.968;9.062;2023-08-08T02:55:23;11.60;99.90
22114;DHT22;11223;49.968;9.062;2023-08-08T02:57:49;11.60;99.90
22114;DHT22;11223;49.968;9.062;2023-08-08T03:00:14;11.50;99.90
22114;DHT22;11223;49.968;9.062;2023-08-08T03:02:40;11.50;99.90
22114;DHT22;11223;49.968;9.062;2023-08-08T03:05:05;11.50;99.90
22114;DHT22;11223;49.968;9.062;2023-08-08T03:07:31;11.50;99.90
22114;DHT22;11223;49.968;9.062;2023-08-08T03:09:56;11.50;99.90
22114;DHT22;11223;49.968;9.062;2023-08-08T03:12:22;11.50;99.90
22114;DHT22;11223;49.968;9.062;2023-08-08T03:14:47;11.50;99.90
22114;DHT22;11223;49.968;9.062;2023-08-08T03:17:13;11.50;99.90
22114;DHT22;11223;49.968;9.062;2023-08-08T03:19:38;11.50;99.90
22114;DHT22;11223;49.968;9.062;2023-08-08T03:22:04;11.50;99.90
22114;DHT22;11223;49.968;9.062;2023-08-08T03:24:29;11.50;99.90
22114;DHT22;11223;49.968;9.062;2023-08-08T03:26:55;11.50;99.90
22114;DHT22;11223;49.968;9.062;2023-08-08T03:29:20;11.40;99.90
22114;DHT22;11223;49.968;9.062;2023-08-08T03:31:46;11.40;99.90
22114;DHT22;11223;49.968;9.062;2023-08-08T03:34:11;11.30;99.90
22114;DHT22;11223;49.968;9.062;2023-08-08T03:36:37;11.30;99.90
22114;DHT22;11223;49.968;9.062;2023-08-08T03:39:02;11.30;99.90
22114;DHT22;11223;49.968;9.062;2023-08-08T03:41:29;11.30;99.90
22114;DHT22;11223;49.968;9.062;2023-08-08T03:43:55;11.20;99.90
22114;DHT22;11223;49.968;9.062;2023-08-08T03:46:21;11.20;99.90
22114;DHT22;11223;49.968;9.062;2023-08-08T03:48:47;11.20;99.90
22114;DHT22;11223;49.968;9.062;2023-08-08T03:51:12;11.30;99.90
22114;DHT22;11223;49.968;9.062;2023-08-08T03:53:37;11.20;99.90
22114;DHT22;11223;49.968;9.062;2023-08-08T03:56:03;11.20;99.90
22114;DHT22;11223;49.968;9.062;2023-08-08T03:58:28;11.30;99.90
22114;DHT22;11223;49.968;9.062;2023-08-08T04:00:54;11.20;99.90
22114;DHT22;11223;49.968;9.062;2023-08-08T04:03:19;11.20;99.90
22114;DHT22;11223;49.968;9.062;2023-08-08T04:05:45;11.20;99.90
22114;DHT22;11223;49.968;9.062;2023-08-08T04:08:14;11.20;99.90
22114;DHT22;11223;49.968;9.062;2023-08-08T04:10:40;11.20;99.90
22114;DHT22;11223;49.968;9.062;2023-08-08T04:13:05;11.20;99.90
22114;DHT22;11223;49.968;9.062;2023-08-08T04:15:31;11.20;99.90
22114;DHT22;11223;49.968;9.062;2023-08-08T04:17:56;11.20;99.90
22114;DHT22;11223;49.968;9.062;2023-08-08T04:20:22;11.10;99.90
22114;DHT22;11223;49.968;9.062;2023-08-08T04:22:47;11.10;99.90
22114;DHT22;11223;49.968;9.062;2023-08-08T04:25:13;11.10;99.90
22114;DHT22;11223;49.968;9.062;2023-08-08T04:27:39;11.10;99.90
22114;DHT22;11223;49.968;9.062;2023-08-08T04:30:04;11.10;99.90
22114;DHT22;11223;49.968;9.062;2023-08-08T04:32:30;11.00;99.90
22114;DHT22;11223;49.968;9.062;2023-08-08T04:34:56;11.00;99.90
22114;DHT22;11223;49.968;9.062;2023-08-08T04:37:21;11.00;99.90
22114;DHT22;11223;49.968;9.062;2023-08-08T04:39:46;11.00;99.90
22114;DHT22;11223;49.968;9.062;2023-08-08T04:42:12;11.00;99.90
22114;DHT22;11223;49.968;9.062;2023-08-08T04:44:37;11.10;99.90
22114;DHT22;11223;49.968;9.062;2023-08-08T04:47:04;11.10;99.90
22114;DHT22;11223;49.968;9.062;2023-08-08T04:49:29;11.10;99.90
22114;DHT22;11223;49.968;9.062;2023-08-08T04:51:55;11.20;99.90
22114;DHT22;11223;49.968;9.062;2023-08-08T04:54:20;11.20;99.90
22114;DHT22;11223;49.968;9.062;2023-08-08T04:56:46;11.20;99.90
22114;DHT22;11223;49.968;9.062;2023-08-08T04:59:11;11.30;99.90
22114;DHT22;11223;49.968;9.062;2023-08-08T05:01:37;11.30;99.90
22114;DHT22;11223;49.968;9.062;2023-08-08T05:04:02;11.40;99.90
22114;DHT22;11223;49.968;9.062;2023-08-08T05:06:28;11.50;99.90
22114;DHT22;11223;49.968;9.062;2023-08-08T05:08:53;11.50;99.90
22114;DHT22;11223;49.968;9.062;2023-08-08T05:11:19;11.60;99.90
22114;DHT22;11223;49.968;9.062;2023-08-08T05:13:44;11.60;99.90
22114;DHT22;11223;49.968;9.062;2023-08-08T05:16:10;11.70;99.90
22114;DHT22;11223;49.968;9.062;2023-08-08T05:18:35;11.80;99.90
22114;DHT22;11223;49.968;9.062;2023-08-08T05:21:01;11.80;99.90
22114;DHT22;11223;49.968;9.062;2023-08-08T05:23:27;11.90;99.90
22114;DHT22;11223;49.968;9.062;2023-08-08T05:25:52;11.90;99.90
22114;DHT22;11223;49.968;9.062;2023-08-08T05:28:17;12.00;99.90
22114;DHT22;11223;49.968;9.062;2023-08-08T05:30:43;12.10;99.90
22114;DHT22;11223;49.968;9.062;2023-08-08T05:33:08;12.10;99.90
22114;DHT22;11223;49.968;9.062;2023-08-08T05:35:34;12.10;99.90
22114;DHT22;11223;49.968;9.062;2023-08-08T05:37:59;12.20;99.90
22114;DHT22;11223;49.968;9.062;2023-08-08T05:40:25;12.30;99.90
22114;DHT22;11223;49.968;9.062;2023-08-08T05:42:50;12.30;99.90
22114;DHT22;11223;49.968;9.062;2023-08-08T05:45:16;12.40;99.90
22114;DHT22;11223;49.968;9.062;2023-08-08T05:47:41;12.40;99.90
22114;DHT22;11223;49.968;9.062;2023-08-08T05:50:07;12.50;99.90
22114;DHT22;11223;49.968;9.062;2023-08-08T05:52:32;12.60;99.90
22114;DHT22;11223;49.968;9.062;2023-08-08T05:54:58;12.60;99.90
22114;DHT22;11223;49.968;9.062;2023-08-08T05:57:25;12.70;99.90
22114;DHT22;11223;49.968;9.062;2023-08-08T05:59:50;12.80;99.90
22114;DHT22;11223;49.968;9.062;2023-08-08T06:02:16;12.90;99.90
22114;DHT22;11223;49.968;9.062;2023-08-08T06:04:41;13.00;99.90
22114;DHT22;11223;49.968;9.062;2023-08-08T06:07:07;13.10;99.90
22114;DHT22;11223;49.968;9.062;2023-08-08T06:09:32;13.20;99.90
22114;DHT22;11223;49.968;9.062;2023-08-08T06:11:58;13.30;99.90
22114;DHT22;11223;49.968;9.062;2023-08-08T06:14:23;13.30;99.90
22114;DHT22;11223;49.968;9.062;2023-08-08T06:16:49;13.40;99.90
22114;DHT22;11223;49.968;9.062;2023-08-08T06:19:14;13.50;99.90
22114;DHT22;11223;49.968;9.062;2023-08-08T06:21:41;13.60;99.90
22114;DHT22;11223;49.968;9.062;2023-08-08T06:24:06;13.60;99.90
22114;DHT22;11223;49.968;9.062;2023-08-08T06:26:32;13.70;99.90
22114;DHT22;11223;49.968;9.062;2023-08-08T06:28:57;13.80;99.90
22114;DHT22;11223;49.968;9.062;2023-08-08T06:31:23;13.90;99.90
22114;DHT22;11223;49.968;9.062;2023-08-08T06:33:48;14.00;99.90
22114;DHT22;11223;49.968;9.062;2023-08-08T06:36:14;14.10;99.90
22114;DHT22;11223;49.968;9.062;2023-08-08T06:38:39;14.20;99.90
22114;DHT22;11223;49.968;9.062;2023-08-08T06:41:05;14.20;99.90
22114;DHT22;11223;49.968;9.062;2023-08-08T06:43:30;14.30;99.90
22114;DHT22;11223;49.968;9.062;2023-08-08T06:45:56;14.40;99.90
22114;DHT22;11223;49.968;9.062;2023-08-08T06:48:21;14.50;99.90
22114;DHT22;11223;49.968;9.062;2023-08-08T06:50:47;14.60;99.90
22114;DHT22;11223;49.968;9.062;2023-08-08T06:53:13;14.70;99.90
22114;DHT22;11223;49.968;9.062;2023-08-08T06:55:38;14.80;99.90
22114;DHT22;11223;49.968;9.062;2023-08-08T06:58:04;14.90;99.90
22114;DHT22;11223;49.968;9.062;2023-08-08T07:00:29;14.90;99.90
22114;DHT22;11223;49.968;9.062;2023-08-08T07:02:55;15.00;99.90
22114;DHT22;11223;49.968;9.062;2023-08-08T07:05:20;15.10;99.90
22114;DHT22;11223;49.968;9.062;2023-08-08T07:07:49;15.20;99.90
22114;DHT22;11223;49.968;9.062;2023-08-08T07:10:14;15.30;99.90
22114;DHT22;11223;49.968;9.062;2023-08-08T07:12:41;15.40;99.90
22114;DHT22;11223;49.968;9.062;2023-08-08T07:15:07;15.50;99.90
22114;DHT22;11223;49.968;9.062;2023-08-08T07:17:33;15.60;99.90
22114;DHT22;11223;49.968;9.062;2023-08-08T07:19:58;15.70;99.90
22114;DHT22;11223;49.968;9.062;2023-08-08T07:22:24;15.80;99.90
22114;DHT22;11223;49.968;9.062;2023-08-08T07:24:49;15.90;99.90
22114;DHT22;11223;49.968;9.062;2023-08-08T07:27:15;15.90;99.90
22114;DHT22;11223;49.968;9.062;2023-08-08T07:29:40;16.00;99.90
22114;DHT22;11223;49.968;9.062;2023-08-08T07:32:06;16.00;99.90
22114;DHT22;11223;49.968;9.062;2023-08-08T07:34:31;16.10;99.90
22114;DHT22;11223;49.968;9.062;2023-08-08T07:36:57;16.10;99.90
22114;DHT22;11223;49.968;9.062;2023-08-08T07:39:23;16.20;99.90
22114;DHT22;11223;49.968;9.062;2023-08-08T07:41:48;16.20;99.90
22114;DHT22;11223;49.968;9.062;2023-08-08T07:44:14;16.30;99.90
22114;DHT22;11223;49.968;9.062;2023-08-08T07:46:39;16.40;99.90
22114;DHT22;11223;49.968;9.062;2023-08-08T07:49:05;16.50;99.90
22114;DHT22;11223;49.968;9.062;2023-08-08T07:51:31;16.50;99.90
22114;DHT22;11223;49.968;9.062;2023-08-08T07:53:58;16.70;99.90
22114;DHT22;11223;49.968;9.062;2023-08-08T07:56:23;16.80;99.90
22114;DHT22;11223;49.968;9.062;2023-08-08T07:58:49;16.80;99.90
22114;DHT22;11223;49.968;9.062;2023-08-08T08:01:14;16.90;99.90
22114;DHT22;11223;49.968;9.062;2023-08-08T08:03:40;17.00;99.90
22114;DHT22;11223;49.968;9.062;2023-08-08T08:06:05;17.10;99.90
22114;DHT22;11223;49.968;9.062;2023-08-08T08:08:31;17.20;99.90
22114;DHT22;11223;49.968;9.062;2023-08-08T08:10:57;17.40;99.90
22114;DHT22;11223;49.968;9.062;2023-08-08T08:13:22;17.50;99.90
22114;DHT22;11223;49.968;9.062;2023-08-08T08:15:47;17.60;99.90
22114;DHT22;11223;49.968;9.062;2023-08-08T08:18:13;17.70;99.90
22114;DHT22;11223;49.968;9.062;2023-08-08T08:20:41;17.80;99.90
22114;DHT22;11223;49.968;9.062;2023-08-08T08:23:07;17.90;99.90
22114;DHT22;11223;49.968;9.062;2023-08-08T08:25:32;18.10;99.90
22114;DHT22;11223;49.968;9.062;2023-08-08T08:27:58;18.10;99.90
22114;DHT22;11223;49.968;9.062;2023-08-08T08:30:23;18.20;99.90
22114;DHT22;11223;49.968;9.062;2023-08-08T08:32:51;18.30;99.90
22114;DHT22;11223;49.968;9.062;2023-08-08T08:35:17;18.30;99.90
22114;DHT22;11223;49.968;9.062;2023-08-08T08:37:42;18.40;99.90
22114;DHT22;11223;49.968;9.062;2023-08-08T08:40:08;18.50;99.90
22114;DHT22;11223;49.968;9.062;2023-08-08T08:42:34;18.60;99.90
22114;DHT22;11223;49.968;9.062;2023-08-08T08:45:00;18.50;99.90
22114;DHT22;11223;49.968;9.062;2023-08-08T08:47:26;18.50;99.90
22114;DHT22;11223;49.968;9.062;2023-08-08T08:49:54;18.50;99.90
22114;DHT22;11223;49.968;9.062;2023-08-08T08:52:20;18.60;99.90
22114;DHT22;11223;49.968;9.062;2023-08-08T08:54:46;18.50;99.90
22114;DHT22;11223;49.968;9.062;2023-08-08T08:57:11;18.60;99.90
22114;DHT22;11223;49.968;9.062;2023-08-08T08:59:37;18.60;99.90
22114;DHT22;11223;49.968;9.062;2023-08-08T09:02:02;18.70;99.90
22114;DHT22;11223;49.968;9.062;2023-08-08T09:04:28;18.60;99.90
22114;DHT22;11223;49.968;9.062;2023-08-08T09:06:54;18.60;99.90
22114;DHT22;11223;49.968;9.062;2023-08-08T09:09:19;18.70;99.90
22114;DHT22;11223;49.968;9.062;2023-08-08T09:11:50;18.80;99.90
22114;DHT22;11223;49.968;9.062;2023-08-08T09:14:17;18.90;99.90
22114;DHT22;11223;49.968;9.062;2023-08-08T09:16:43;19.10;99.90
22114;DHT22;11223;49.968;9.062;2023-08-08T09:19:08;19.20;99.90
22114;DHT22;11223;49.968;9.062;2023-08-08T09:21:34;19.20;99.90
22114;DHT22;11223;49.968;9.062;2023-08-08T09:23:59;19.30;99.90
22114;DHT22;11223;49.968;9.062;2023-08-08T09:26:25;19.50;99.90
22114;DHT22;11223;49.968;9.062;2023-08-08T09:28:50;19.50;99.90
22114;DHT22;11223;49.968;9.062;2023-08-08T09:31:16;19.60;99.90
22114;DHT22;11223;49.968;9.062;2023-08-08T09:33:41;19.60;99.90
22114;DHT22;11223;49.968;9.062;2023-08-08T09:36:13;19.70;99.90
22114;DHT22;11223;49.968;9.062;2023-08-08T09:38:41;19.70;99.90
22114;DHT22;11223;49.968;9.062;2023-08-08T09:41:07;19.80;99.90
22114;DHT22;11223;49.968;9.062;2023-08-08T09:43:32;19.90;99.90
22114;DHT22;11223;49.968;9.062;2023-08-08T09:45:58;20.00;99.90
22114;DHT22;11223;49.968;9.062;2023-08-08T09:48:29;20.10;99.90
22114;DHT22;11223;49.968;9.062;2023-08-08T09:50:54;20.00;99.90
22114;DHT22;11223;49.968;9.062;2023-08-08T09:53:20;20.10;99.90
22114;DHT22;11223;49.968;9.062;2023-08-08T09:55:45;20.10;99.90
22114;DHT22;11223;49.968;9.062;2023-08-08T09:58:12;20.10;99.90
22114;DHT22;11223;49.968;9.062;2023-08-08T10:00:38;20.10;99.90
22114;DHT22;11223;49.968;9.062;2023-08-08T10:03:03;20.10;99.90
22114;DHT22;11223;49.968;9.062;2023-08-08T10:05:29;20.20;99.90
22114;DHT22;11223;49.968;9.062;2023-08-08T10:07:55;20.20;99.90
22114;DHT22;11223;49.968;9.062;2023-08-08T10:10:21;20.20;99.90
22114;DHT22;11223;49.968;9.062;2023-08-08T10:12:47;20.20;99.90
22114;DHT22;11223;49.968;9.062;2023-08-08T10:15:13;20.30;99.90
22114;DHT22;11223;49.968;9.062;2023-08-08T10:17:39;20.20;99.90
22114;DHT22;11223;49.968;9.062;2023-08-08T10:20:05;20.40;99.90
22114;DHT22;11223;49.968;9.062;2023-08-08T10:22:37;20.50;99.90
22114;DHT22;11223;49.968;9.062;2023-08-08T10:25:04;20.50;99.90
22114;DHT22;11223;49.968;9.062;2023-08-08T10:27:33;20.60;99.90
22114;DHT22;11223;49.968;9.062;2023-08-08T10:30:08;20.70;99.90
22114;DHT22;11223;49.968;9.062;2023-08-08T10:32:42;20.70;99.90
22114;DHT22;11223;49.968;9.062;2023-08-08T10:35:09;20.90;99.90
22114;DHT22;11223;49.968;9.062;2023-08-08T10:37:35;21.00;99.90
22114;DHT22;11223;49.968;9.062;2023-08-08T10:40:01;21.20;99.90
22114;DHT22;11223;49.968;9.062;2023-08-08T10:42:31;21.20;99.90
22114;DHT22;11223;49.968;9.062;2023-08-08T10:45:01;21.20;99.90
22114;DHT22;11223;49.968;9.062;2023-08-08T10:47:36;21.30;99.90
22114;DHT22;11223;49.968;9.062;2023-08-08T10:52:32;21.60;99.90
22114;DHT22;11223;49.968;9.062;2023-08-08T10:55:00;21.70;99.90
22114;DHT22;11223;49.968;9.062;2023-08-08T10:57:27;21.60;99.90
22114;DHT22;11223;49.968;9.062;2023-08-08T10:59:52;21.50;99.90
22114;DHT22;11223;49.968;9.062;2023-08-08T11:02:19;21.50;99.90
22114;DHT22;11223;49.968;9.062;2023-08-08T11:04:44;21.40;99.90
22114;DHT22;11223;49.968;9.062;2023-08-08T11:07:11;21.50;99.90
22114;DHT22;11223;49.968;9.062;2023-08-08T11:09:36;21.40;99.90
22114;DHT22;11223;49.968;9.062;2023-08-08T11:12:02;21.50;99.90
22114;DHT22;11223;49.968;9.062;2023-08-08T11:14:27;21.50;99.90
22114;DHT22;11223;49.968;9.062;2023-08-08T11:16:53;21.40;99.90
22114;DHT22;11223;49.968;9.062;2023-08-08T11:19:19;21.50;99.90
22114;DHT22;11223;49.968;9.062;2023-08-08T11:21:45;21.50;99.90
22114;DHT22;11223;49.968;9.062;2023-08-08T11:24:11;21.70;99.90
22114;DHT22;11223;49.968;9.062;2023-08-08T11:26:38;21.80;99.90
22114;DHT22;11223;49.968;9.062;2023-08-08T11:29:04;21.80;99.90
22114;DHT22;11223;49.968;9.062;2023-08-08T11:31:34;21.80;99.90
22114;DHT22;11223;49.968;9.062;2023-08-08T11:33:59;21.70;99.90
22114;DHT22;11223;49.968;9.062;2023-08-08T11:36:31;21.70;99.90
22114;DHT22;11223;49.968;9.062;2023-08-08T11:38:58;21.70;99.90
22114;DHT22;11223;49.968;9.062;2023-08-08T11:41:25;21.50;99.90
22114;DHT22;11223;49.968;9.062;2023-08-08T11:43:51;21.60;99.90
22114;DHT22;11223;49.968;9.062;2023-08-08T11:46:18;21.80;99.90
22114;DHT22;11223;49.968;9.062;2023-08-08T11:48:46;21.80;99.90
22114;DHT22;11223;49.968;9.062;2023-08-08T11:51:13;21.80;99.90
22114;DHT22;11223;49.968;9.062;2023-08-08T11:53:47;21.90;99.90
22114;DHT22;11223;49.968;9.062;2023-08-08T11:56:13;22.00;99.90
22114;DHT22;11223;49.968;9.062;2023-08-08T11:58:38;22.10;99.90
22114;DHT22;11223;49.968;9.062;2023-08-08T12:01:04;22.20;99.90
22114;DHT22;11223;49.968;9.062;2023-08-08T12:03:30;22.20;99.90
22114;DHT22;11223;49.968;9.062;2023-08-08T12:05:56;22.10;99.90
22114;DHT22;11223;49.968;9.062;2023-08-08T12:08:21;22.10;99.90
22114;DHT22;11223;49.968;9.062;2023-08-08T12:10:49;22.20;99.90
22114;DHT22;11223;49.968;9.062;2023-08-08T12:13:20;22.20;99.90
22114;DHT22;11223;49.968;9.062;2023-08-08T12:15:45;22.30;99.90
22114;DHT22;11223;49.968;9.062;2023-08-08T12:18:11;22.50;99.90
22114;DHT22;11223;49.968;9.062;2023-08-08T12:20:37;22.40;99.90
22114;DHT22;11223;49.968;9.062;2023-08-08T12:23:02;22.50;99.90
22114;DHT22;11223;49.968;9.062;2023-08-08T12:25:27;22.50;99.90
22114;DHT22;11223;49.968;9.062;2023-08-08T12:27:53;22.60;99.90
22114;DHT22;11223;49.968;9.062;2023-08-08T12:30:19;22.70;99.90
22114;DHT22;11223;49.968;9.062;2023-08-08T12:32:44;22.60;99.90
22114;DHT22;11223;49.968;9.062;2023-08-08T12:35:10;22.60;99.90
22114;DHT22;11223;49.968;9.062;2023-08-08T12:37:35;22.70;99.90
22114;DHT22;11223;49.968;9.062;2023-08-08T12:40:00;22.80;99.90
22114;DHT22;11223;49.968;9.062;2023-08-08T12:42:28;22.90;99.90
22114;DHT22;11223;49.968;9.062;2023-08-08T12:44:53;22.80;99.90
22114;DHT22;11223;49.968;9.062;2023-08-08T12:47:19;22.80;99.90
22114;DHT22;11223;49.968;9.062;2023-08-08T12:49:46;22.90;99.90
22114;DHT22;11223;49.968;9.062;2023-08-08T12:52:11;22.90;99.90
22114;DHT22;11223;49.968;9.062;2023-08-08T12:54:37;22.80;99.90
22114;DHT22;11223;49.968;9.062;2023-08-08T12:57:03;23.00;99.90
22114;DHT22;11223;49.968;9.062;2023-08-08T12:59:29;23.10;99.90
22114;DHT22;11223;49.968;9.062;2023-08-08T13:01:54;23.20;99.90
22114;DHT22;11223;49.968;9.062;2023-08-08T13:04:20;23.30;99.90
22114;DHT22;11223;49.968;9.062;2023-08-08T13:06:47;23.20;99.90
22114;DHT22;11223;49.968;9.062;2023-08-08T13:09:12;23.00;99.90
22114;DHT22;11223;49.968;9.062;2023-08-08T13:11:38;22.80;99.90
22114;DHT22;11223;49.968;9.062;2023-08-08T13:14:04;22.60;99.90
22114;DHT22;11223;49.968;9.062;2023-08-08T13:16:29;22.50;99.90
22114;DHT22;11223;49.968;9.062;2023-08-08T13:18:55;22.40;99.90
22114;DHT22;11223;49.968;9.062;2023-08-08T13:21:20;22.30;99.90
22114;DHT22;11223;49.968;9.062;2023-08-08T13:23:46;22.00;99.90
22114;DHT22;11223;49.968;9.062;2023-08-08T13:26:11;21.70;99.90
22114;DHT22;11223;49.968;9.062;2023-08-08T13:28:37;21.50;99.90
22114;DHT22;11223;49.968;9.062;2023-08-08T13:31:04;21.10;99.90
22114;DHT22;11223;49.968;9.062;2023-08-08T13:33:31;21.00;99.90
22114;DHT22;11223;49.968;9.062;2023-08-08T13:35:57;21.00;99.90
22114;DHT22;11223;49.968;9.062;2023-08-08T13:38:22;21.30;99.90
22114;DHT22;11223;49.968;9.062;2023-08-08T13:40:49;21.50;99.90
22114;DHT22;11223;49.968;9.062;2023-08-08T13:43:14;21.60;99.90
22114;DHT22;11223;49.968;9.062;2023-08-08T13:45:39;21.60;99.90
22114;DHT22;11223;49.968;9.062;2023-08-08T13:48:05;21.80;99.90
22114;DHT22;11223;49.968;9.062;2023-08-08T13:50:31;22.00;99.90
22114;DHT22;11223;49.968;9.062;2023-08-08T13:52:56;22.10;99.90
22114;DHT22;11223;49.968;9.062;2023-08-08T13:55:22;22.10;99.90
22114;DHT22;11223;49.968;9.062;2023-08-08T13:57:47;22.00;99.90
22114;DHT22;11223;49.968;9.062;2023-08-08T14:00:13;21.90;99.90
22114;DHT22;11223;49.968;9.062;2023-08-08T14:02:40;21.90;99.90
22114;DHT22;11223;49.968;9.062;2023-08-08T14:05:05;21.90;99.90
22114;DHT22;11223;49.968;9.062;2023-08-08T14:07:34;21.80;99.90
22114;DHT22;11223;49.968;9.062;2023-08-08T14:10:00;21.70;99.90
22114;DHT22;11223;49.968;9.062;2023-08-08T14:12:25;21.60;99.90
22114;DHT22;11223;49.968;9.062;2023-08-08T14:14:51;21.40;99.90
22114;DHT22;11223;49.968;9.062;2023-08-08T14:17:16;21.30;99.90
22114;DHT22;11223;49.968;9.062;2023-08-08T14:19:42;21.10;99.90
22114;DHT22;11223;49.968;9.062;2023-08-08T14:22:07;21.10;99.90
22114;DHT22;11223;49.968;9.062;2023-08-08T14:24:33;21.10;99.90
22114;DHT22;11223;49.968;9.062;2023-08-08T14:26:58;21.10;99.90
22114;DHT22;11223;49.968;9.062;2023-08-08T14:29:24;21.70;99.90
22114;DHT22;11223;49.968;9.062;2023-08-08T14:31:49;22.40;99.90
22114;DHT22;11223;49.968;9.062;2023-08-08T14:34:15;22.80;99.90
22114;DHT22;11223;49.968;9.062;2023-08-08T14:36:40;23.00;99.90
22114;DHT22;11223;49.968;9.062;2023-08-08T14:39:06;22.70;99.90
22114;DHT22;11223;49.968;9.062;2023-08-08T14:41:32;22.50;99.90
22114;DHT22;11223;49.968;9.062;2023-08-08T14:43:57;22.30;99.90
22114;DHT22;11223;49.968;9.062;2023-08-08T14:46:23;22.10;99.90
22114;DHT22;11223;49.968;9.062;2023-08-08T14:48:48;22.00;99.90
22114;DHT22;11223;49.968;9.062;2023-08-08T14:51:14;21.90;99.90
22114;DHT22;11223;49.968;9.062;2023-08-08T14:53:42;21.70;99.90
22114;DHT22;11223;49.968;9.062;2023-08-08T14:56:08;21.40;99.90
22114;DHT22;11223;49.968;9.062;2023-08-08T14:58:33;21.00;99.90
22114;DHT22;11223;49.968;9.062;2023-08-08T15:01:00;20.80;99.90
22114;DHT22;11223;49.968;9.062;2023-08-08T15:03:25;20.60;99.90
22114;DHT22;11223;49.968;9.062;2023-08-08T15:05:51;20.30;99.90
22114;DHT22;11223;49.968;9.062;2023-08-08T15:08:16;20.10;99.90
22114;DHT22;11223;49.968;9.062;2023-08-08T15:10:43;19.90;99.90
22114;DHT22;11223;49.968;9.062;2023-08-08T15:13:09;19.70;99.90
22114;DHT22;11223;49.968;9.062;2023-08-08T15:15:34;19.50;99.90
22114;DHT22;11223;49.968;9.062;2023-08-08T15:18:00;19.30;99.90
22114;DHT22;11223;49.968;9.062;2023-08-08T15:20:26;19.20;99.90
22114;DHT22;11223;49.968;9.062;2023-08-08T15:22:51;19.20;99.90